Time;durP1;ratioP1;P1;durP2;ratioP2;P2;SDS_P1;SDS_P2;PMS_P1;PMS_P2;Temp;Humidity;BMP_temperature;BMP_pressure;BME280_temperature;BME280_humidity;BME280_pressure;Samples;Min_cycle;Max_cycle;Signal;HPM_P1;HPM_P2
2022/04/25 00:02:16;;;;;;;13.57;4.88;;;;;;;8.85;72.17;99764.38;5050246;28;20033;-62
2022/04/25 00:04:45;;;;;;;12.60;5.32;;;;;;;9.01;71.61;99762.22;5051032;28;20112;-63
2022/04/25 00:07:10;;;;;;;14.43;5.07;;;;;;;8.97;71.39;99750.97;5052187;28;20079;-63
2022/04/25 00:09:35;;;;;;;10.82;4.80;;;;;;;9.01;71.43;99750.00;5052184;28;20025;-63
2022/04/25 00:12:01;;;;;;;11.98;4.68;;;;;;;9.07;71.07;99762.94;5050729;28;20389;-63
2022/04/25 00:14:27;;;;;;;9.50;4.35;;;;;;;9.07;71.18;99757.72;5052157;28;20025;-63
2022/04/25 00:16:56;;;;;;;14.10;4.93;;;;;;;9.00;71.47;99757.91;5045442;28;20033;-63
2022/04/25 00:19:22;;;;;;;11.98;4.93;;;;;;;9.06;71.03;99758.63;5055425;28;20075;-63
2022/04/25 00:21:47;;;;;;;12.82;4.95;;;;;;;9.10;70.99;99752.41;5056454;28;20130;-63
2022/04/25 00:24:13;;;;;;;8.32;4.40;;;;;;;9.22;70.45;99753.84;5055732;28;20461;-63
2022/04/25 00:26:38;;;;;;;11.30;4.80;;;;;;;8.83;72.45;99742.59;5056028;28;20029;-64
2022/04/25 00:29:04;;;;;;;14.18;4.95;;;;;;;8.84;72.34;99752.19;5056005;28;20032;-63
2022/04/25 00:31:29;;;;;;;11.52;4.10;;;;;;;9.03;71.52;99748.22;5055260;28;20028;-64
2022/04/25 00:33:54;;;;;;;11.57;5.18;;;;;;;9.00;71.67;99748.28;5055299;28;20091;-63
2022/04/25 00:36:20;;;;;;;10.75;4.38;;;;;;;9.08;71.18;99741.09;5055945;28;20045;-64
2022/04/25 00:38:45;;;;;;;11.07;4.90;;;;;;;8.96;71.87;99740.53;5054465;28;20460;-64
2022/04/25 00:41:11;;;;;;;12.35;5.07;;;;;;;9.03;71.38;99732.47;5055056;28;20025;-64
2022/04/25 00:43:36;;;;;;;9.68;4.25;;;;;;;8.99;71.76;99748.31;5054309;28;20035;-63
2022/04/25 00:46:02;;;;;;;12.15;4.72;;;;;;;8.93;72.03;99738.84;5055800;28;20037;-64
2022/04/25 00:48:27;;;;;;;7.10;4.00;;;;;;;8.97;71.73;99732.63;5053455;28;20032;-63
2022/04/25 00:50:53;;;;;;;12.27;4.75;;;;;;;8.76;72.58;99741.88;5054768;28;20044;-63
2022/04/25 00:53:18;;;;;;;15.02;4.72;;;;;;;8.98;71.98;99737.00;5055565;28;20384;-63
2022/04/25 00:55:44;;;;;;;13.00;5.05;;;;;;;8.86;72.08;99729.44;5054586;28;20072;-64
2022/04/25 00:58:11;;;;;;;10.52;4.00;;;;;;;8.86;72.18;99734.69;5054916;28;20040;-63
2022/04/25 01:00:37;;;;;;;12.63;4.45;;;;;;;8.84;72.20;99726.84;5055152;28;20040;-64
2022/04/25 01:03:03;;;;;;;10.77;4.63;;;;;;;8.76;72.67;99731.41;5055433;28;20033;-63
2022/04/25 01:05:28;;;;;;;10.98;4.53;;;;;;;8.97;71.75;99723.91;5054990;28;20033;-62
2022/04/25 01:07:54;;;;;;;9.93;4.55;;;;;;;8.90;72.05;99736.31;5055520;28;20124;-63
2022/04/25 01:10:19;;;;;;;13.38;4.57;;;;;;;8.78;72.59;99729.63;5054361;28;20473;-64
2022/04/25 01:12:45;;;;;;;10.13;4.50;;;;;;;8.78;72.67;99728.78;5055352;28;20041;-63
2022/04/25 01:15:12;;;;;;;9.10;4.28;;;;;;;8.71;72.93;99721.94;5054869;28;20029;-64
2022/04/25 01:17:38;;;;;;;10.65;5.03;;;;;;;8.74;72.61;99735.84;5054843;28;20039;-63
2022/04/25 01:20:05;;;;;;;11.73;4.93;;;;;;;8.79;72.50;99733.09;5055296;28;20048;-64
2022/04/25 01:28:35;;;;;;;9.43;4.07;;;;;;;9.01;71.55;99722.94;5054852;28;20538;-64
2022/04/25 01:31:00;;;;;;;12.68;4.40;;;;;;;8.95;71.71;99723.97;5054111;28;20041;-64
2022/04/25 01:33:26;;;;;;;12.23;4.63;;;;;;;8.84;72.38;99724.22;5054593;28;20524;-64
2022/04/25 01:35:51;;;;;;;11.00;4.93;;;;;;;8.90;71.97;99717.97;5054651;28;20119;-63
2022/04/25 01:38:17;;;;;;;11.98;4.60;;;;;;;8.96;71.69;99723.06;5054795;28;20037;-63
2022/04/25 01:40:42;;;;;;;12.70;4.82;;;;;;;8.97;71.59;99716.91;5054600;28;20040;-64
2022/04/25 01:43:08;;;;;;;12.13;4.40;;;;;;;8.92;72.01;99718.78;5057316;28;20491;-64
2022/04/25 01:45:33;;;;;;;10.32;4.32;;;;;;;8.81;72.40;99713.81;5056192;28;20130;-64
2022/04/25 01:47:59;;;;;;;12.35;4.72;;;;;;;8.84;72.25;99711.13;5066547;28;20162;-65
2022/04/25 01:50:24;;;;;;;12.90;4.63;;;;;;;8.98;71.73;99709.94;5054614;28;20033;-64
2022/04/25 01:52:50;;;;;;;12.48;4.75;;;;;;;8.94;71.79;99708.28;5055532;28;20116;-65
2022/04/25 01:55:15;;;;;;;9.18;4.57;;;;;;;8.86;72.21;99708.47;5055518;28;20111;-64
2022/04/25 01:57:40;;;;;;;11.73;5.35;;;;;;;8.91;72.19;99701.34;5055743;28;20037;-65
2022/04/25 02:00:07;;;;;;;7.78;4.25;;;;;;;8.86;72.15;99705.88;5055078;28;20549;-64
2022/04/25 02:02:34;;;;;;;12.45;4.47;;;;;;;8.92;71.72;99703.06;5056538;28;20048;-64
2022/04/25 02:04:59;;;;;;;10.55;4.47;;;;;;;8.90;72.00;99707.50;5054250;28;20037;-64
2022/04/25 02:07:25;;;;;;;11.60;4.53;;;;;;;8.74;72.65;99719.28;5053079;28;20395;-64
2022/04/25 02:09:51;;;;;;;10.02;4.25;;;;;;;8.78;72.50;99710.44;5055699;28;20028;-64
2022/04/25 02:12:16;;;;;;;9.50;4.53;;;;;;;8.76;72.49;99710.44;5055115;28;20394;-63
2022/04/25 02:14:43;;;;;;;10.68;4.50;;;;;;;8.72;72.93;99715.81;5054839;28;20048;-64
2022/04/25 02:17:09;;;;;;;11.32;5.07;;;;;;;8.68;73.01;99704.53;5069436;28;20435;-64
2022/04/25 02:19:38;;;;;;;9.20;4.63;;;;;;;8.69;73.02;99710.63;5054839;28;20047;-65
2022/04/25 02:22:05;;;;;;;12.60;4.20;;;;;;;8.84;72.26;99705.03;5055187;28;20032;-64
2022/04/25 02:24:31;;;;;;;14.50;4.78;;;;;;;8.79;72.50;99707.75;5055071;28;20036;-65
2022/04/25 02:26:56;;;;;;;9.95;4.90;;;;;;;8.88;72.06;99698.81;5054717;28;20397;-64
2022/04/25 02:29:22;;;;;;;9.88;4.70;;;;;;;8.86;72.08;99716.34;5052978;28;20037;-65
2022/04/25 02:31:48;;;;;;;9.43;4.47;;;;;;;8.90;71.96;99712.75;5052911;28;20378;-64
2022/04/25 02:34:14;;;;;;;11.93;4.65;;;;;;;8.91;71.87;99706.59;5054362;28;20032;-64
2022/04/25 02:36:39;;;;;;;7.88;4.50;;;;;;;8.86;72.11;99703.25;5052851;28;20028;-64
2022/04/25 02:39:05;;;;;;;11.68;4.55;;;;;;;8.81;71.98;99699.84;5054379;28;20036;-64
2022/04/25 02:41:30;;;;;;;9.90;4.57;;;;;;;8.67;72.73;99701.97;5054229;28;20025;-64
2022/04/25 02:43:56;;;;;;;14.25;5.20;;;;;;;8.76;72.62;99704.34;5053025;28;20086;-64
2022/04/25 02:46:23;;;;;;;11.18;4.97;;;;;;;8.69;72.80;99706.25;5054263;28;20056;-64
2022/04/25 02:48:49;;;;;;;11.95;5.05;;;;;;;8.71;72.97;99698.38;5053398;28;20079;-64
2022/04/25 02:51:16;;;;;;;14.80;4.13;;;;;;;8.76;72.70;99696.50;5053439;28;20516;-63
2022/04/25 02:53:42;;;;;;;13.40;4.30;;;;;;;8.84;72.07;99699.78;5052277;28;20029;-62
2022/04/25 02:56:08;;;;;;;8.68;4.43;;;;;;;8.84;72.07;99698.03;5052921;28;20072;-63
2022/04/25 02:58:35;;;;;;;10.65;4.32;;;;;;;8.88;72.13;99704.03;5053512;28;20071;-62
2022/04/25 03:01:04;;;;;;;12.10;4.57;;;;;;;8.79;72.33;99704.28;5052659;28;20025;-61
2022/04/25 03:03:31;;;;;;;11.73;4.70;;;;;;;8.84;71.98;99698.03;5052730;28;20064;-64
2022/04/25 03:05:56;;;;;;;8.85;3.90;;;;;;;8.96;71.67;99699.47;5053369;28;20090;-62
2022/04/25 03:08:23;;;;;;;12.70;5.10;;;;;;;8.90;71.92;99702.25;5052013;28;20124;-63
2022/04/25 03:10:51;;;;;;;12.65;4.50;;;;;;;8.91;71.75;99701.34;5052956;28;20033;-63
2022/04/25 03:13:17;;;;;;;9.15;4.18;;;;;;;8.86;71.96;99695.38;5053193;28;20081;-63
2022/04/25 03:15:43;;;;;;;12.50;4.53;;;;;;;8.93;71.73;99699.53;5050806;28;20461;-62
2022/04/25 03:18:11;;;;;;;9.10;4.30;;;;;;;9.10;70.63;99692.13;5053321;28;20041;-62
2022/04/25 03:20:37;;;;;;;12.85;4.93;;;;;;;9.10;70.68;99686.03;5052412;28;20053;-63
2022/04/25 03:23:05;;;;;;;13.90;4.95;;;;;;;9.07;70.79;99705.28;5051887;28;20029;-62
2022/04/25 03:25:31;;;;;;;10.60;4.53;;;;;;;9.07;71.00;99696.59;5052758;28;20111;-63
2022/04/25 03:27:57;;;;;;;9.77;4.25;;;;;;;9.11;70.85;99691.22;5051596;28;20059;-63
2022/04/25 03:30:23;;;;;;;8.60;4.60;;;;;;;9.05;70.91;99696.59;5052116;28;20029;-62
2022/04/25 03:32:48;;;;;;;11.93;4.55;;;;;;;9.07;70.87;99692.19;5053061;28;20029;-62
2022/04/25 03:35:15;;;;;;;11.10;4.65;;;;;;;9.08;70.69;99693.91;5052040;28;20040;-62
2022/04/25 03:37:41;;;;;;;11.50;5.13;;;;;;;9.07;70.80;99696.59;5052448;28;20128;-61
2022/04/25 03:40:08;;;;;;;9.85;3.95;;;;;;;9.21;70.16;99699.69;5052930;28;20082;-62
2022/04/25 03:42:34;;;;;;;12.60;4.68;;;;;;;9.24;70.00;99693.50;5050788;28;20107;-61
2022/04/25 03:45:00;;;;;;;9.07;4.28;;;;;;;9.38;69.57;99697.47;5052526;28;20117;-61
2022/04/25 03:47:26;;;;;;;9.52;4.15;;;;;;;9.38;69.48;99701.88;5052040;28;20046;-61
2022/04/25 03:49:52;;;;;;;11.90;5.10;;;;;;;9.41;69.64;99701.75;5050937;28;20028;-63
2022/04/25 03:52:17;;;;;;;12.68;4.93;;;;;;;9.36;69.63;99698.41;5055615;28;20040;-62
2022/04/25 03:57:27;;;;;;;12.98;3.63;;;;;;;9.52;68.86;99702.31;5052182;28;20044;-62
2022/04/25 03:59:53;;;;;;;9.77;4.30;;;;;;;9.57;68.46;99704.81;5051177;28;20040;-62
2022/04/25 04:02:18;;;;;;;13.18;5.07;;;;;;;9.34;69.35;99706.31;5052614;28;20033;-62
2022/04/25 04:04:44;;;;;;;9.07;4.75;;;;;;;9.42;69.07;99697.41;5052477;28;20400;-63
2022/04/25 04:07:09;;;;;;;10.95;4.22;;;;;;;9.47;68.93;99706.84;5053090;28;20120;-64
2022/04/25 04:09:47;;;;;;;13.63;4.90;;;;;;;9.55;68.63;99707.50;5052211;28;20033;-64
2022/04/25 04:12:14;;;;;;;14.52;4.82;;;;;;;9.46;68.75;99702.50;5052717;28;20029;-63
2022/04/25 04:14:40;;;;;;;8.77;4.68;;;;;;;9.44;69.07;99701.69;5050410;28;20043;-63
2022/04/25 04:17:07;;;;;;;10.30;4.75;;;;;;;9.42;68.93;99703.50;5052387;28;20033;-63
2022/04/25 04:19:35;;;;;;;12.88;4.60;;;;;;;9.55;68.66;99707.50;5051184;28;20033;-63
2022/04/25 04:22:02;;;;;;;12.38;4.60;;;;;;;9.53;68.79;99713.66;5051273;28;20039;-63
2022/04/25 04:24:28;;;;;;;12.82;5.07;;;;;;;9.56;68.53;99717.06;5050241;28;20459;-62
2022/04/25 04:26:55;;;;;;;16.65;6.65;;;;;;;9.40;69.13;99718.41;5049802;28;20539;-63
2022/04/25 04:29:21;;;;;;;13.18;5.35;;;;;;;9.46;68.98;99720.88;5051290;28;20029;-63
2022/04/25 04:31:46;;;;;;;16.88;5.47;;;;;;;9.41;69.06;99721.88;5050909;28;20029;-63
2022/04/25 04:34:12;;;;;;;10.25;4.53;;;;;;;9.53;68.68;99717.16;5052198;28;20075;-63
2022/04/25 04:36:38;;;;;;;14.65;5.22;;;;;;;9.50;68.89;99722.50;5052131;28;20049;-64
2022/04/25 04:39:04;;;;;;;13.57;5.88;;;;;;;9.55;68.59;99714.50;5049907;28;20154;-62
2022/04/25 04:41:29;;;;;;;13.52;5.78;;;;;;;9.64;68.42;99714.22;5050748;28;20044;-63
2022/04/25 04:43:57;;;;;;;12.05;4.82;;;;;;;9.66;68.18;99716.84;5054545;28;20550;-65
2022/04/25 04:46:26;;;;;;;10.40;4.57;;;;;;;9.84;67.65;99713.66;5051819;28;20056;-63
2022/04/25 04:48:51;;;;;;;11.00;4.85;;;;;;;9.87;67.60;99719.69;5053695;28;20116;-64
2022/04/25 04:51:16;;;;;;;12.73;5.72;;;;;;;9.78;67.70;99721.72;5050893;28;20120;-63
2022/04/25 04:53:42;;;;;;;11.27;4.90;;;;;;;9.69;67.64;99721.97;5051262;28;20029;-63
2022/04/25 04:56:08;;;;;;;12.50;5.47;;;;;;;9.68;68.16;99728.13;5049540;28;20065;-64
2022/04/25 04:58:33;;;;;;;14.80;5.60;;;;;;;9.83;67.17;99731.16;5047771;28;20413;-64
2022/04/25 05:00:59;;;;;;;17.98;5.50;;;;;;;9.70;67.83;99736.81;5051215;28;20102;-64
2022/04/25 05:03:25;;;;;;;16.67;5.50;;;;;;;9.76;67.43;99737.50;5050017;28;20041;-64
2022/04/25 05:05:54;;;;;;;12.68;5.70;;;;;;;9.76;67.51;99740.13;5054280;28;20029;-64
2022/04/25 05:08:20;;;;;;;13.45;5.35;;;;;;;9.84;67.43;99732.03;5054923;28;20357;-64
2022/04/25 05:10:48;;;;;;;13.23;6.28;;;;;;;9.82;67.53;99733.84;5054794;28;20435;-65
2022/04/25 05:13:15;;;;;;;11.48;5.63;;;;;;;9.87;67.12;99732.81;5054739;28;20464;-64
2022/04/25 05:15:40;;;;;;;14.90;6.05;;;;;;;9.82;67.58;99739.09;5055935;28;20037;-64
2022/04/25 05:18:06;;;;;;;12.30;6.15;;;;;;;9.81;67.38;99748.75;5056090;28;20037;-64
2022/04/25 05:20:31;;;;;;;15.00;6.10;;;;;;;9.95;67.02;99735.22;5055264;28;20110;-64
2022/04/25 05:22:56;;;;;;;14.52;6.68;;;;;;;10.03;66.66;99729.72;5051887;28;20043;-63
2022/04/25 05:25:24;;;;;;;13.52;6.03;;;;;;;10.03;66.84;99735.84;5055706;28;20074;-64
2022/04/25 05:27:54;;;;;;;14.50;6.03;;;;;;;10.10;66.59;99734.75;5054897;28;20404;-64
2022/04/25 05:30:21;;;;;;;10.80;5.22;;;;;;;10.32;66.00;99745.47;5054647;28;20036;-63
2022/04/25 05:32:55;;;;;;;10.82;5.30;;;;;;;10.26;66.18;99735.19;5054018;28;20155;-64
2022/04/25 05:35:24;;;;;;;13.02;5.40;;;;;;;10.26;66.16;99744.84;5055437;28;20064;-63
2022/04/25 05:37:50;;;;;;;13.10;5.75;;;;;;;10.42;65.87;99745.22;5054567;28;20029;-64
2022/04/25 05:40:17;;;;;;;12.77;5.25;;;;;;;10.41;65.68;99746.97;5054885;28;20024;-63
2022/04/25 05:42:44;;;;;;;15.60;6.53;;;;;;;10.62;65.68;99742.81;5055830;28;20025;-64
2022/04/25 05:45:10;;;;;;;11.60;5.65;;;;;;;10.65;65.21;99747.09;5054462;28;20041;-64
2022/04/25 05:47:37;;;;;;;12.10;5.55;;;;;;;10.70;65.00;99748.69;5060694;28;20029;-64
2022/04/25 05:52:48;;;;;;;12.30;6.22;;;;;;;10.82;64.61;99750.91;5055954;28;20086;-64
2022/04/25 05:55:14;;;;;;;11.23;5.32;;;;;;;10.74;64.86;99752.94;5055480;28;20157;-64
2022/04/25 05:57:43;;;;;;;12.60;5.38;;;;;;;10.81;64.55;99750.94;5058476;28;20029;-64
2022/04/25 06:00:11;;;;;;;10.52;5.43;;;;;;;10.68;64.89;99753.13;5062311;28;20037;-64
2022/04/25 06:02:38;;;;;;;11.57;5.50;;;;;;;11.00;63.89;99754.69;5055224;28;20479;-63
2022/04/25 06:05:05;;;;;;;12.30;5.43;;;;;;;10.99;63.86;99758.25;5053990;28;20040;-64
2022/04/25 06:07:31;;;;;;;15.35;5.45;;;;;;;11.10;63.52;99771.91;5045647;28;20040;-63
2022/04/25 06:09:57;;;;;;;11.35;5.30;;;;;;;11.10;63.60;99761.38;5048596;28;20041;-64
2022/04/25 06:12:22;;;;;;;12.50;5.10;;;;;;;11.21;63.12;99766.28;5053819;28;20384;-64
2022/04/25 06:14:48;;;;;;;12.13;5.50;;;;;;;11.02;63.36;99757.28;5053676;28;20041;-63
2022/04/25 06:17:15;;;;;;;10.10;5.00;;;;;;;10.94;63.81;99761.94;5052971;28;20033;-64
2022/04/25 06:19:41;;;;;;;14.27;6.15;;;;;;;10.83;64.27;99763.16;5054852;28;20210;-63
2022/04/25 06:22:07;;;;;;;14.63;5.80;;;;;;;10.68;64.47;99768.03;5055124;28;20059;-64
2022/04/25 06:24:32;;;;;;;12.60;5.55;;;;;;;10.47;65.53;99774.81;5053620;28;20473;-64
2022/04/25 06:26:58;;;;;;;12.82;5.45;;;;;;;10.56;65.57;99764.03;5059664;28;20488;-64
2022/04/25 06:29:24;;;;;;;14.10;6.10;;;;;;;10.62;65.22;99773.50;5073368;28;20048;-65
2022/04/25 06:31:50;;;;;;;10.68;5.72;;;;;;;10.45;65.40;99761.75;5065926;28;20457;-65
2022/04/25 06:34:15;;;;;;;10.40;6.07;;;;;;;10.56;65.13;99775.38;5054766;28;20029;-63
2022/04/25 06:36:41;;;;;;;13.35;5.63;;;;;;;10.43;65.69;99768.81;5062486;28;20028;-64
2022/04/25 06:39:07;;;;;;;12.48;5.57;;;;;;;10.72;64.88;99770.50;5070079;28;20832;-64
2022/04/25 06:41:33;;;;;;;14.85;5.47;;;;;;;10.80;64.58;99767.63;5055860;28;20083;-64
2022/04/25 06:43:59;;;;;;;12.27;6.55;;;;;;;10.75;64.75;99767.78;5054121;28;20040;-65
2022/04/25 06:46:29;;;;;;;13.85;6.05;;;;;;;10.78;64.41;99767.69;5053849;28;20454;-65
2022/04/25 06:51:38;;;;;;;11.32;5.80;;;;;;;10.93;64.26;99768.97;5053261;28;20059;-64
2022/04/25 06:54:04;;;;;;;14.82;5.43;;;;;;;10.94;64.05;99770.69;5054170;28;20033;-64
2022/04/25 06:56:30;;;;;;;11.68;5.65;;;;;;;10.90;64.29;99768.22;5051979;28;20059;-65
2022/04/25 06:58:55;;;;;;;12.35;5.95;;;;;;;11.01;63.83;99774.84;5052686;28;20418;-65
2022/04/25 07:01:21;;;;;;;11.43;6.75;;;;;;;11.04;64.02;99768.59;5052729;28;20116;-64
2022/04/25 07:03:46;;;;;;;11.80;7.13;;;;;;;11.24;63.44;99771.41;5052788;28;20029;-64
2022/04/25 07:06:12;;;;;;;8.10;5.45;;;;;;;11.30;62.97;99767.75;5053266;28;20033;-64
2022/04/25 07:08:37;;;;;;;11.02;5.95;;;;;;;11.29;62.79;99772.16;5057721;28;20064;-64
2022/04/25 07:11:03;;;;;;;10.57;6.00;;;;;;;11.29;62.29;99768.63;5053364;28;20128;-63
2022/04/25 07:13:28;;;;;;;14.88;6.97;;;;;;;11.34;62.50;99770.22;5053564;28;20468;-64
2022/04/25 07:15:53;;;;;;;11.93;5.53;;;;;;;11.39;62.45;99774.44;5052473;28;20081;-63
2022/04/25 07:18:19;;;;;;;11.77;4.57;;;;;;;11.34;62.30;99770.22;5052640;28;20116;-64
2022/04/25 07:20:44;;;;;;;11.77;5.38;;;;;;;11.07;63.27;99766.72;5052549;28;20053;-63
2022/04/25 07:28:48;;;;;;;9.45;5.80;;;;;;;11.01;63.22;99776.59;5050721;28;20090;-62
2022/04/25 07:28:58;;;;;;;9.45;5.20;;;;;;;11.06;63.52;99775.53;5050178;28;20503;-63
2022/04/25 07:31:23;;;;;;;12.25;5.50;;;;;;;11.19;63.05;99775.13;5047927;28;20029;-64
2022/04/25 07:33:49;;;;;;;10.70;6.05;;;;;;;11.02;63.25;99776.56;5052488;28;20055;-64
2022/04/25 07:36:15;;;;;;;10.23;5.53;;;;;;;11.08;63.42;99778.09;5053542;28;20043;-63
2022/04/25 07:38:41;;;;;;;15.07;8.25;;;;;;;11.06;63.56;99772.91;5052195;28;20388;-64
2022/04/25 07:41:09;;;;;;;14.57;6.05;;;;;;;10.90;63.72;99781.34;5052644;28;20037;-64
2022/04/25 07:43:35;;;;;;;10.15;5.90;;;;;;;10.94;63.76;99780.34;5051988;28;20033;-62
2022/04/25 07:46:01;;;;;;;9.82;5.78;;;;;;;10.89;63.93;99788.38;5050968;28;20036;-63
2022/04/25 07:48:27;;;;;;;11.40;5.93;;;;;;;10.88;64.06;99786.66;5051344;28;20037;-64
2022/04/25 07:50:53;;;;;;;20.13;8.05;;;;;;;10.96;63.79;99784.63;5050721;28;20028;-64
2022/04/25 07:53:19;;;;;;;14.10;6.75;;;;;;;11.21;63.07;99786.44;5051416;28;20044;-64
2022/04/25 07:55:44;;;;;;;10.88;5.95;;;;;;;11.03;63.37;99788.78;5050950;28;20033;-63
2022/04/25 07:58:10;;;;;;;10.25;5.70;;;;;;;11.06;63.21;99783.44;5050712;28;20090;-64
2022/04/25 08:00:40;;;;;;;13.65;7.55;;;;;;;10.94;63.80;99785.59;5052907;28;20037;-64
2022/04/25 08:03:06;;;;;;;11.70;5.95;;;;;;;10.94;63.53;99780.34;5050643;28;20097;-63
2022/04/25 08:05:32;;;;;;;16.25;6.43;;;;;;;10.97;63.40;99786.38;5050642;28;20040;-63
2022/04/25 08:07:57;;;;;;;13.57;5.65;;;;;;;10.89;63.88;99796.28;5050684;28;20029;-64
2022/04/25 08:10:23;;;;;;;9.82;6.13;;;;;;;10.83;64.37;99788.56;5049610;28;20090;-63
2022/04/25 08:18:16;;;;;;;13.50;6.18;;;;;;;10.86;64.34;99793.75;5049977;28;20535;-64
2022/04/25 08:20:43;;;;;;;9.95;5.43;;;;;;;11.02;63.98;99794.94;5052628;28;20049;-64
2022/04/25 08:23:11;;;;;;;11.05;5.85;;;;;;;10.92;64.15;99804.03;5051521;28;20086;-63
2022/04/25 08:25:41;;;;;;;9.85;5.72;;;;;;;11.08;63.76;99794.75;5049254;28;20029;-63
2022/04/25 08:28:07;;;;;;;9.93;5.57;;;;;;;11.19;63.51;99796.16;5051347;28;20484;-63
2022/04/25 08:30:33;;;;;;;9.68;5.72;;;;;;;11.22;63.43;99806.59;5049732;28;20038;-63
2022/04/25 08:32:59;;;;;;;9.32;5.30;;;;;;;11.22;63.11;99806.59;5049803;28;20397;-61
2022/04/25 08:35:25;;;;;;;9.90;5.32;;;;;;;11.42;62.64;99801.50;5052644;28;20484;-64
2022/04/25 08:37:51;;;;;;;10.05;5.05;;;;;;;11.54;62.46;99801.09;5053159;28;20029;-64
2022/04/25 08:40:17;;;;;;;10.45;5.07;;;;;;;11.78;61.82;99796.72;5055899;28;20033;-64
2022/04/25 08:42:43;;;;;;;13.00;6.53;;;;;;;12.03;61.35;99795.88;5063913;28;20025;-64
2022/04/25 08:45:09;;;;;;;13.60;7.28;;;;;;;12.15;60.58;99813.84;5055608;28;20119;-62
2022/04/25 08:47:51;;;;;;;8.18;4.55;;;;;;;12.27;59.75;99808.13;5055681;28;20032;-63
2022/04/25 08:50:18;;;;;;;8.50;4.45;;;;;;;12.49;59.61;99802.91;5050288;28;20033;-64
2022/04/25 08:52:44;;;;;;;11.23;5.53;;;;;;;12.67;59.14;99813.63;5055153;28;20482;-62
2022/04/25 08:55:11;;;;;;;15.18;8.05;;;;;;;12.83;58.39;99807.69;5054991;28;20041;-63
2022/04/25 08:57:37;;;;;;;8.43;4.85;;;;;;;12.94;58.03;99811.69;5064925;28;20071;-62
2022/04/25 09:00:05;;;;;;;10.40;4.20;;;;;;;13.10;57.62;99811.94;5058620;28;20056;-63
2022/04/25 09:02:31;;;;;;;10.10;4.82;;;;;;;13.30;57.03;99815.47;5055633;28;20119;-63
2022/04/25 09:04:56;;;;;;;9.30;4.90;;;;;;;13.39;57.12;99824.78;5055339;28;20036;-62
2022/04/25 09:07:23;;;;;;;9.32;5.57;;;;;;;13.31;57.14;99818.97;5054297;28;20033;-63
2022/04/25 09:09:49;;;;;;;12.55;6.00;;;;;;;13.05;57.41;99831.44;5054672;28;20056;-63
2022/04/25 09:12:15;;;;;;;9.55;5.45;;;;;;;12.70;58.62;99826.72;5054830;28;20033;-62
2022/04/25 09:14:44;;;;;;;6.95;4.60;;;;;;;12.60;58.63;99827.97;5055337;28;20029;-63
2022/04/25 09:17:11;;;;;;;9.30;5.43;;;;;;;12.40;59.03;99832.22;5044852;28;20415;-63
2022/04/25 09:19:37;;;;;;;8.57;5.18;;;;;;;12.74;58.35;99828.31;5054934;28;20060;-62
2022/04/25 09:22:04;;;;;;;7.88;5.80;;;;;;;12.82;58.28;99831.50;5053277;28;20387;-63
2022/04/25 09:24:34;;;;;;;9.68;5.88;;;;;;;12.87;58.36;99826.88;5054986;28;20118;-63
2022/04/25 09:27:16;;;;;;;11.48;5.00;;;;;;;12.78;58.05;99853.63;5055490;28;20055;-63
2022/04/25 09:29:42;;;;;;;8.82;4.88;;;;;;;12.60;58.95;99833.25;5048185;28;20512;-64
2022/04/25 09:32:09;;;;;;;8.10;4.60;;;;;;;12.39;59.45;99845.47;5053486;28;20049;-63
2022/04/25 09:37:41;;;;;;;7.80;4.50;;;;;;;12.42;59.70;99842.72;5050897;28;20090;-63
2022/04/25 09:40:07;;;;;;;8.13;4.93;;;;;;;12.64;59.31;99842.75;5054284;28;20033;-64
2022/04/25 09:42:32;;;;;;;12.30;5.03;;;;;;;12.61;59.72;99841.09;5053518;28;20081;-64
2022/04/25 09:44:59;;;;;;;6.80;5.38;;;;;;;12.52;59.89;99852.84;5063305;28;20037;-64
2022/04/25 09:47:30;;;;;;;10.00;5.70;;;;;;;12.48;60.69;99839.84;5054552;28;20029;-63
2022/04/25 09:50:00;;;;;;;10.13;5.63;;;;;;;12.55;60.58;99847.44;5053978;28;20428;-63
2022/04/25 09:52:26;;;;;;;7.32;4.93;;;;;;;12.66;60.15;99848.81;5056081;28;20067;-62
2022/04/25 09:54:52;;;;;;;6.55;4.32;;;;;;;13.02;58.95;99857.94;5052639;28;20029;-63
2022/04/25 09:57:31;;;;;;;6.20;3.90;;;;;;;12.93;58.57;99863.56;5057943;28;20040;-64
2022/04/25 09:59:57;;;;;;;6.65;4.65;;;;;;;13.25;58.43;99848.28;5037248;28;20064;-63
2022/04/25 10:02:22;;;;;;;7.90;5.03;;;;;;;13.62;57.64;99846.72;5054267;28;20056;-64
2022/04/25 10:04:48;;;;;;;9.73;5.10;;;;;;;13.85;56.77;99859.81;5054467;28;20040;-64
2022/04/25 10:07:14;;;;;;;5.35;3.60;;;;;;;13.62;56.66;99857.28;5053271;28;20036;-65
2022/04/25 10:09:42;;;;;;;3.95;2.35;;;;;;;13.65;56.39;99849.25;5054165;28;20116;-64
2022/04/25 10:12:09;;;;;;;2.65;1.90;;;;;;;13.71;55.13;99851.59;5055141;28;20029;-65
2022/04/25 10:14:36;;;;;;;2.58;1.70;;;;;;;13.56;54.74;99861.03;5053632;28;20075;-63
2022/04/25 10:17:02;;;;;;;3.30;2.00;;;;;;;13.68;54.97;99851.72;5036532;28;20040;-64
2022/04/25 10:19:29;;;;;;;3.10;1.95;;;;;;;13.67;55.24;99848.22;5053750;28;20041;-62
2022/04/25 10:21:56;;;;;;;3.67;2.10;;;;;;;13.41;54.72;99861.69;5054110;28;20040;-62
2022/04/25 10:24:22;;;;;;;3.33;1.73;;;;;;;13.41;55.18;99849.34;5053887;28;20033;-62
2022/04/25 10:26:50;;;;;;;3.75;2.25;;;;;;;13.41;55.36;99854.63;5058922;28;20029;-62
2022/04/25 10:29:26;;;;;;;3.83;2.25;;;;;;;13.49;55.14;99865.72;5053461;28;20048;-63
2022/04/25 10:31:58;;;;;;;2.92;2.10;;;;;;;13.42;55.51;99858.97;5053068;28;20072;-64
2022/04/25 10:34:45;;;;;;;3.05;2.00;;;;;;;13.48;55.51;99861.34;5053886;28;20028;-64
2022/04/25 10:37:43;;;;;;;2.38;1.75;;;;;;;13.35;55.67;99878.63;5053782;28;20116;-63
2022/04/25 10:40:12;;;;;;;3.22;2.17;;;;;;;13.53;55.64;99867.31;5048572;28;20055;-64
2022/04/25 10:46:00;;;;;;;5.20;2.13;;;;;;;13.58;55.42;99866.25;5052944;28;20040;-65
2022/04/25 10:48:29;;;;;;;5.07;2.45;;;;;;;13.49;54.90;99860.44;5053722;28;20112;-64
2022/04/25 10:51:16;;;;;;;2.38;1.80;;;;;;;13.30;55.77;99873.53;5052488;28;20044;-63
2022/04/25 10:54:01;;;;;;;3.53;1.98;;;;;;;12.68;60.04;99870.69;5052972;28;20037;-61
2022/04/25 10:56:28;;;;;;;2.25;1.77;;;;;;;12.38;60.64;99864.81;5053400;28;20086;-63
2022/04/25 10:59:25;;;;;;;3.15;2.10;;;;;;;12.07;60.95;99877.31;5051920;28;20488;-61
2022/04/25 11:01:52;;;;;;;3.33;2.30;;;;;;;12.04;61.46;99885.31;5049076;28;20051;-62
2022/04/25 11:04:20;;;;;;;4.18;2.17;;;;;;;12.08;61.39;99873.75;5051963;28;20039;-61
2022/04/25 11:06:46;;;;;;;7.45;2.65;;;;;;;12.06;61.34;99894.03;5050375;28;20091;-64
2022/04/25 11:09:40;;;;;;;5.43;3.05;;;;;;;11.88;61.80;99891.19;5052202;28;20564;-62
2022/04/25 11:12:07;;;;;;;6.78;3.88;;;;;;;11.92;61.71;99896.28;5066778;28;20488;-62
2022/04/25 11:14:32;;;;;;;8.75;4.05;;;;;;;12.16;61.15;99893.72;5051601;28;20445;-63
2022/04/25 11:17:15;;;;;;;7.13;4.38;;;;;;;12.08;61.35;99897.47;5052810;28;20128;-64
2022/04/25 11:19:48;;;;;;;6.60;4.32;;;;;;;11.90;61.51;99900.75;5052109;28;20041;-64
2022/04/25 11:22:36;;;;;;;6.15;4.38;;;;;;;11.68;62.19;99910.25;5052535;28;20021;-63
2022/04/25 11:25:23;;;;;;;7.07;4.70;;;;;;;11.75;62.26;99911.78;5046330;28;20043;-63
2022/04/25 11:28:04;;;;;;;9.25;4.90;;;;;;;11.70;62.67;99918.97;5051828;28;20058;-63
2022/04/25 11:30:30;;;;;;;6.93;4.82;;;;;;;11.70;62.55;99921.59;5050573;28;20037;-64
2022/04/25 11:33:09;;;;;;;9.00;5.07;;;;;;;11.92;62.18;99919.97;5050907;28;20037;-64
2022/04/25 11:35:35;;;;;;;9.48;5.55;;;;;;;12.20;60.80;99916.38;5043103;28;20071;-64
2022/04/25 11:38:01;;;;;;;7.68;5.10;;;;;;;12.20;60.65;99921.66;5038079;28;20037;-65
2022/04/25 11:40:27;;;;;;;8.80;5.28;;;;;;;12.23;60.67;99919.78;5036900;28;20488;-61
2022/04/25 11:42:53;;;;;;;9.05;6.20;;;;;;;12.12;60.86;99924.56;5043702;28;20391;-64
2022/04/25 11:45:19;;;;;;;10.07;6.75;;;;;;;12.10;61.03;99923.75;5044401;28;20094;-64
2022/04/25 11:47:44;;;;;;;15.43;8.00;;;;;;;12.15;61.16;99926.22;5040561;28;20036;-63
2022/04/25 11:50:13;;;;;;;18.52;10.48;;;;;;;12.22;61.05;99938.28;5050681;28;20514;-62
2022/04/25 11:52:54;;;;;;;12.27;7.40;;;;;;;12.11;61.03;99929.88;5050614;28;20033;-64
2022/04/25 11:55:32;;;;;;;11.65;5.75;;;;;;;12.02;61.59;99939.84;5040087;28;20074;-63
2022/04/25 11:57:58;;;;;;;11.23;6.45;;;;;;;12.06;61.37;99945.84;5036298;28;20793;-62
2022/04/25 12:00:24;;;;;;;12.02;7.00;;;;;;;12.05;61.64;99939.72;5033850;28;20041;-63
2022/04/25 12:02:49;;;;;;;13.70;7.25;;;;;;;11.90;61.99;99942.88;5035357;28;20288;-61